Time;durP1;ratioP1;P1;durP2;ratioP2;P2;SDS_P1;SDS_P2;PMS_P1;PMS_P2;Temp;Humidity;BMP_temperature;BMP_pressure;BME280_temperature;BME280_humidity;BME280_pressure;Samples;Min_cycle;Max_cycle;Signal;HPM_P1;HPM_P2
2022/03/08 00:02:44;;;;;;;;;;;;;;;-3.84;100.00;99234.66;10257673;28;20053;-78
2022/03/08 00:07:46;;;;;;;;;;;;;;;-3.86;100.00;99231.44;10262060;28;20040;-78
2022/03/08 00:12:47;;;;;;;;;;;;;;;-3.86;100.00;99223.56;10200707;28;20066;-77
2022/03/08 00:17:50;;;;;;;;;;;;;;;-3.99;100.00;99230.66;10262722;28;20007;-78
2022/03/08 00:22:52;;;;;;;;;;;;;;;-4.12;100.00;99231.47;10240146;28;19937;-77
2022/03/08 00:27:53;;;;;;;;;;;;;;;-4.11;100.00;99227.88;10252188;28;20026;-78
2022/03/08 00:32:53;;;;;;;;;;;;;;;-4.20;100.00;99229.09;10193205;28;19966;-77
2022/03/08 00:37:55;;;;;;;;;;;;;;;-4.29;100.00;99218.03;10211466;28;19915;-78
2022/03/08 00:42:56;;;;;;;;;;;;;;;-4.34;100.00;99202.09;10300743;28;19927;-80
2022/03/08 00:47:56;;;;;;;;;;;;;;;-4.48;100.00;99198.69;10248465;28;20054;-81
2022/03/08 00:52:58;;;;;;;;;;;;;;;-4.45;100.00;99192.22;10418867;28;19909;-80
2022/03/08 00:58:01;;;;;;;;;;;;;;;-4.49;100.00;99188.41;10243214;28;19911;-81
2022/03/08 01:03:05;;;;;;;;;;;;;;;-4.48;100.00;99184.75;10303113;28;20278;-78
2022/03/08 01:08:06;;;;;;;;;;;;;;;-4.59;100.00;99186.19;10275199;28;19922;-80
2022/03/08 01:13:07;;;;;;;;;;;;;;;-4.56;100.00;99183.19;10255074;28;19926;-79
2022/03/08 01:18:12;;;;;;;;;;;;;;;-4.53;100.00;99185.38;10244285;28;20378;-82
2022/03/08 01:23:13;;;;;;;;;;;;;;;-4.74;100.00;99180.38;10200320;28;19934;-81
2022/03/08 01:28:15;;;;;;;;;;;;;;;-4.80;100.00;99173.31;10265119;28;19943;-80
2022/03/08 01:33:16;;;;;;;;;;;;;;;-4.82;100.00;99170.09;10307673;28;19936;-80
2022/03/08 01:38:19;;;;;;;;;;;;;;;-4.86;100.00;99160.00;10192322;28;19938;-80
2022/03/08 01:43:24;;;;;;;;;;;;;;;-4.86;100.00;99165.22;10182419;28;19933;-78
2022/03/08 01:48:27;;;;;;;;;;;;;;;-4.88;100.00;99158.59;10248222;28;20512;-78
2022/03/08 01:53:27;;;;;;;;;;;;;;;-4.82;100.00;99143.91;10248058;28;19937;-78
2022/03/08 01:58:27;;;;;;;;;;;;;;;-4.89;100.00;99141.28;10186878;28;20044;-76
2022/03/08 02:03:28;;;;;;;;;;;;;;;-4.82;100.00;99128.19;10165487;28;19989;-78
2022/03/08 02:08:30;;;;;;;;;;;;;;;-4.73;100.00;99122.56;10271506;28;20032;-78
2022/03/08 02:13:31;;;;;;;;;;;;;;;-4.69;100.00;99126.34;10258416;28;19942;-79
2022/03/08 02:18:33;;;;;;;;;;;;;;;-4.73;100.00;99117.31;10327981;28;20747;-80
2022/03/08 02:23:35;;;;;;;;;;;;;;;-4.85;100.00;99111.06;10281314;28;19934;-78
2022/03/08 02:28:38;;;;;;;;;;;;;;;-4.92;100.00;99108.47;10187102;28;19923;-78
2022/03/08 02:33:42;;;;;;;;;;;;;;;-4.97;100.00;99103.03;10268073;28;20468;-77
2022/03/08 02:38:44;;;;;;;;;;;;;;;-4.96;100.00;99102.00;10192344;28;19927;-78
2022/03/08 02:43:44;;;;;;;;;;;;;;;-5.02;100.00;99104.66;10268385;28;19927;-78
2022/03/08 02:48:44;;;;;;;;;;;;;;;-5.11;100.00;99093.56;10269473;28;19935;-77
2022/03/08 02:53:48;;;;;;;;;;;;;;;-5.28;100.00;99090.56;10250901;28;19973;-76
2022/03/08 02:58:48;;;;;;;;;;;;;;;-5.29;100.00;99091.56;10253843;28;20031;-78
2022/03/08 03:03:53;;;;;;;;;;;;;;;-5.36;100.00;99092.56;10278739;28;19922;-78
2022/03/08 03:08:56;;;;;;;;;;;;;;;-5.29;100.00;99096.00;10202960;28;19951;-77
2022/03/08 03:13:59;;;;;;;;;;;;;;;-5.11;100.00;99090.16;10269590;28;19982;-77
2022/03/08 03:19:05;;;;;;;;;;;;;;;-5.28;100.00;99093.16;10267151;28;19927;-78
2022/03/08 03:24:07;;;;;;;;;;;;;;;-5.36;100.00;99092.56;10256918;28;19982;-78
2022/03/08 03:29:08;;;;;;;;;;;;;;;-5.38;100.00;99110.25;10204815;28;19928;-77
2022/03/08 03:34:09;;;;;;;;;;;;;;;-5.50;100.00;99115.25;10225430;28;20008;-78
2022/03/08 03:39:14;;;;;;;;;;;;;;;-5.78;100.00;99116.19;10223228;28;19938;-78
2022/03/08 03:44:15;;;;;;;;;;;;;;;-5.64;100.00;99116.25;10189617;28;19927;-78
2022/03/08 03:49:16;;;;;;;;;;;;;;;-5.77;100.00;99102.13;10217795;28;19975;-78
2022/03/08 03:54:18;;;;;;;;;;;;;;;-5.68;100.00;99102.75;10315065;28;19922;-77
2022/03/08 03:59:18;;;;;;;;;;;;;;;-5.73;100.00;99099.94;10367020;28;19972;-77
2022/03/08 04:04:25;;;;;;;;;;;;;;;-5.73;100.00;99099.94;10201766;28;20002;-76
2022/03/08 04:09:31;;;;;;;;;;;;;;;-5.87;100.00;99103.50;10223279;28;20042;-76
2022/03/08 04:14:33;;;;;;;;;;;;;;;-5.94;100.00;99100.09;10284990;28;20029;-77
2022/03/08 04:19:33;;;;;;;;;;;;;;;-5.92;100.00;99105.94;10352860;28;19934;-77
2022/03/08 04:24:34;;;;;;;;;;;;;;;-5.96;100.00;99108.13;10296419;28;19915;-77
2022/03/08 04:29:36;;;;;;;;;;;;;;;-5.87;100.00;99106.13;10219523;28;20045;-77
2022/03/08 04:34:38;;;;;;;;;;;;;;;-5.99;100.00;99105.91;10193439;28;19972;-77
2022/03/08 04:39:43;;;;;;;;;;;;;;;-6.03;100.00;99108.13;10245860;28;19927;-77
2022/03/08 04:44:44;;;;;;;;;;;;;;;-6.18;100.00;99112.66;10196199;28;20132;-78
2022/03/08 04:49:44;;;;;;;;;;;;;;;-6.15;100.00;99114.09;10203659;28;20049;-77
2022/03/08 04:54:45;;;;;;;;;;;;;;;-6.23;100.00;99112.44;10253589;28;19931;-78
2022/03/08 04:59:47;;;;;;;;;;;;;;;-6.24;100.00;99115.25;10258916;28;19930;-78
2022/03/08 05:04:49;;;;;;;;;;;;;;;-6.37;100.00;99110.78;10284283;28;19933;-78
2022/03/08 05:09:49;;;;;;;;;;;;;;;-6.40;100.00;99121.59;10264987;28;19928;-80
2022/03/08 05:14:51;;;;;;;;;;;;;;;-6.33;100.00;99125.84;10217567;28;19915;-76
2022/03/08 05:19:52;;;;;;;;;;;;;;;-6.24;100.00;99125.69;10306360;28;19974;-76
2022/03/08 05:24:53;;;;;;;;;;;;;;;-6.21;100.00;99133.97;10241350;28;19916;-77
2022/03/08 05:29:53;;;;;;;;;;;;;;;-6.19;100.00;99129.34;10378264;28;19909;-78
2022/03/08 05:34:54;;;;;;;;;;;;;;;-6.12;100.00;99129.38;10237952;28;19974;-78
2022/03/08 05:39:55;;;;;;;;;;;;;;;-6.18;100.00;99127.53;10244864;28;20039;-81
2022/03/08 05:44:55;;;;;;;;;;;;;;;-6.12;100.00;99129.38;10369567;28;19924;-77
2022/03/08 05:49:57;;;;;;;;;;;;;;;-6.22;100.00;99128.91;10308546;28;19934;-77
2022/03/08 05:54:58;;;;;;;;;;;;;;;-6.21;100.00;99130.56;10240265;28;19949;-78
2022/03/08 05:59:59;;;;;;;;;;;;;;;-6.07;100.00;99138.25;10280706;28;19942;-78
2022/03/08 06:04:59;;;;;;;;;;;;;;;-5.90;100.00;99140.53;10275362;28;20360;-76
2022/03/08 06:10:04;;;;;;;;;;;;;;;-5.88;100.00;99139.28;10215297;28;19950;-78
2022/03/08 06:15:05;;;;;;;;;;;;;;;-5.80;100.00;99146.16;10246230;28;19978;-78
2022/03/08 06:20:09;;;;;;;;;;;;;;;-5.51;100.00;99142.41;10261574;28;20029;-78
2022/03/08 06:25:11;;;;;;;;;;;;;;;-5.27;100.00;99148.91;10275047;28;20289;-76
2022/03/08 06:30:11;;;;;;;;;;;;;;;-4.95;100.00;99148.13;10298492;28;19935;-76
2022/03/08 06:35:13;;;;;;;;;;;;;;;-4.73;100.00;99147.94;10190366;28;20403;-76
2022/03/08 06:40:13;;;;;;;;;;;;;;;-4.49;100.00;99142.03;10217264;28;20292;-77
2022/03/08 06:45:16;;;;;;;;;;;;;;;-4.01;100.00;99144.34;10267814;28;19927;-77
2022/03/08 06:50:17;;;;;;;;;;;;;;;-2.82;100.00;99129.72;10256610;28;20006;-77
2022/03/08 06:55:18;;;;;;;;;;;;;;;-2.22;100.00;99128.13;10260789;28;20002;-77
2022/03/08 07:00:19;;;;;;;;;;;;;;;-2.36;100.00;99130.09;10189992;28;20026;-77
2022/03/08 07:05:19;;;;;;;;;;;;;;;-2.72;100.00;99133.47;10257108;28;20327;-77
2022/03/08 07:10:20;;;;;;;;;;;;;;;-2.53;100.00;99134.31;10273633;28;20008;-78
2022/03/08 07:15:21;;;;;;;;;;;;;;;-2.09;100.00;99132.44;10256348;28;19993;-76
2022/03/08 07:20:21;;;;;;;;;;;;;;;-1.98;100.00;99129.06;10222081;28;19933;-77
2022/03/08 07:25:26;;;;;;;;;;;;;;;-1.84;100.00;99125.25;10187730;28;19934;-76
2022/03/08 07:30:29;;;;;;;;;;;;;;;-1.29;100.00;99114.59;10185648;28;19927;-78
2022/03/08 07:35:34;;;;;;;;;;;;;;;-1.20;100.00;99117.69;10189541;28;19973;-77
2022/03/08 07:40:35;;;;;;;;;;;;;;;-1.02;100.00;99114.97;10193383;28;20251;-77
2022/03/08 07:45:36;;;;;;;;;;;;;;;-0.67;100.00;99112.38;10191383;28;19974;-80
2022/03/08 07:50:39;;;;;;;;;;;;;;;-0.83;100.00;99120.97;10243795;28;19935;-77
2022/03/08 07:55:41;;;;;;;;;;;;;;;-0.45;100.00;99112.63;10179882;28;20436;-78
2022/03/08 08:00:43;;;;;;;;;;;;;;;-0.19;100.00;99118.41;10177037;28;20371;-77
2022/03/08 08:05:44;;;;;;;;;;;;;;;0.22;100.00;99117.41;10247319;28;19930;-77
2022/03/08 08:10:44;;;;;;;;;;;;;;;0.30;100.00;99130.25;10250616;28;20302;-76
2022/03/08 08:15:45;;;;;;;;;;;;;;;0.74;100.00;99120.75;10244547;28;19931;-78
2022/03/08 08:20:46;;;;;;;;;;;;;;;1.09;100.00;99119.72;10248640;28;19937;-77
2022/03/08 08:25:46;;;;;;;;;;;;;;;1.75;100.00;99120.72;10279081;28;19927;-76
2022/03/08 08:30:47;;;;;;;;;;;;;;;1.73;100.00;99112.19;10249693;28;20429;-76
2022/03/08 08:35:48;;;;;;;;;;;;;;;1.95;100.00;99107.75;10258207;28;19934;-77
2022/03/08 08:40:48;;;;;;;;;;;;;;;1.97;100.00;99107.50;10184575;28;19927;-78
2022/03/08 08:45:51;;;;;;;;;;;;;;;2.22;100.00;99112.28;10188192;28;19926;-76
2022/03/08 08:50:52;;;;;;;;;;;;;;;2.44;100.00;99113.06;10191466;28;20018;-77
2022/03/08 08:55:53;;;;;;;;;;;;;;;2.34;100.00;99106.84;10191031;28;19950;-78
2022/03/08 09:00:54;;;;;;;;;;;;;;;2.93;100.00;99105.06;10193791;28;19931;-78
2022/03/08 09:05:55;;;;;;;;;;;;;;;3.20;99.11;99098.88;10211211;28;19927;-77
2022/03/08 09:10:57;;;;;;;;;;;;;;;3.05;97.12;99099.56;10223697;28;19958;-78
2022/03/08 09:15:57;;;;;;;;;;;;;;;3.68;94.50;99103.97;10210695;28;19949;-77
2022/03/08 09:20:58;;;;;;;;;;;;;;;3.91;86.15;99101.97;10183580;28;20031;-78
2022/03/08 09:25:58;;;;;;;;;;;;;;;3.97;79.42;99095.63;10232642;28;19927;-78
2022/03/08 09:31:00;;;;;;;;;;;;;;;4.00;80.52;99090.56;10206965;28;20017;-77
2022/03/08 09:36:01;;;;;;;;;;;;;;;4.32;68.91;99097.59;10217307;28;19934;-77
2022/03/08 09:41:02;;;;;;;;;;;;;;;4.60;64.36;99092.88;10191984;28;19923;-76
2022/03/08 09:46:03;;;;;;;;;;;;;;;4.49;58.07;99082.25;10198695;28;20086;-76
2022/03/08 09:51:04;;;;;;;;;;;;;;;4.85;57.81;99085.75;10202685;28;20077;-75
2022/03/08 09:56:05;;;;;;;;;;;;;;;4.77;58.80;99069.50;10211231;28;19949;-75
2022/03/08 10:01:07;;;;;;;;;;;;;;;4.91;56.44;99062.59;10218554;28;19942;-77
2022/03/08 10:06:08;;;;;;;;;;;;;;;4.95;52.63;99063.66;10237419;28;19922;-77
2022/03/08 10:11:12;;;;;;;;;;;;;;;5.05;55.89;99070.84;10316527;28;19927;-77
2022/03/08 10:16:22;;;;;;;;;;;;;;;5.38;55.08;99072.91;10292958;28;20104;-76
2022/03/08 10:21:43;;;;;;;;;;;;;;;5.37;51.41;99067.88;10208956;28;19946;-75
2022/03/08 10:26:50;;;;;;;;;;;;;;;5.60;51.67;99058.50;10287506;28;19985;-76
2022/03/08 10:32:19;;;;;;;;;;;;;;;5.70;52.11;99061.94;10269983;28;19923;-76
2022/03/08 10:37:20;;;;;;;;;;;;;;;5.88;52.50;99055.22;10286572;28;19950;-77
2022/03/08 10:42:29;;;;;;;;;;;;;;;6.13;51.17;99053.53;10257293;28;19942;-79
2022/03/08 10:47:43;;;;;;;;;;;;;;;6.20;50.89;99041.47;10246402;28;19957;-78
2022/03/08 10:52:45;;;;;;;;;;;;;;;6.56;49.48;99047.38;10269525;28;20007;-78
2022/03/08 10:57:53;;;;;;;;;;;;;;;7.15;48.05;99036.81;10303836;28;19998;-77
2022/03/08 11:02:55;;;;;;;;;;;;;;;7.47;47.63;99031.66;10223281;28;19962;-78
2022/03/08 11:07:58;;;;;;;;;;;;;;;7.75;45.33;99024.66;10223224;28;19938;-78
2022/03/08 11:13:01;;;;;;;;;;;;;;;7.73;43.62;99015.34;10221502;28;19930;-77
2022/03/08 11:18:02;;;;;;;;;;;;;;;8.20;44.41;99009.09;10281717;28;19922;-77
2022/03/08 11:23:05;;;;;;;;;;;;;;;7.69;42.42;99005.22;10269992;28;19920;-77
2022/03/08 11:28:07;;;;;;;;;;;;;;;8.14;45.47;99011.06;10199969;28;19965;-77
2022/03/08 11:33:26;;;;;;;;;;;;;;;7.83;43.62;99007.19;10187867;28;20019;-79
2022/03/08 11:38:26;;;;;;;;;;;;;;;8.26;41.97;98997.25;10275123;28;19927;-77
2022/03/08 11:43:41;;;;;;;;;;;;;;;8.60;42.17;98983.69;10199746;28;19931;-78
2022/03/08 11:48:55;;;;;;;;;;;;;;;8.59;42.45;98984.75;10237472;28;19931;-78
2022/03/08 11:54:01;;;;;;;;;;;;;;;8.71;40.11;98984.31;10273493;28;20393;-78
2022/03/08 11:59:09;;;;;;;;;;;;;;;8.30;37.89;98987.56;10315781;28;19923;-79
2022/03/08 12:04:12;;;;;;;;;;;;;;;9.11;36.64;98988.16;10180485;28;19935;-78
2022/03/08 12:09:13;;;;;;;;;;;;;;;9.35;37.52;98983.41;10366649;28;19933;-77
2022/03/08 12:14:17;;;;;;;;;;;;;;;9.22;38.05;98978.03;10245604;28;19935;-77
2022/03/08 12:19:37;;;;;;;;;;;;;;;9.76;37.44;98984.47;10189805;28;19977;-79
2022/03/08 12:24:41;;;;;;;;;;;;;;;10.03;33.64;98972.91;10308227;28;19980;-78
2022/03/08 12:29:58;;;;;;;;;;;;;;;9.95;33.39;98953.75;10355411;28;19926;-77
2022/03/08 12:35:00;;;;;;;;;;;;;;;9.95;31.44;98961.81;10228109;28;19982;-78
2022/03/08 12:40:05;;;;;;;;;;;;;;;10.49;34.14;98975.38;10170653;28;19963;-79
2022/03/08 12:45:11;;;;;;;;;;;;;;;10.35;31.51;98969.28;10172457;28;19941;-79
2022/03/08 12:50:11;;;;;;;;;;;;;;;10.17;32.15;98949.53;10183139;28;19923;-79
2022/03/08 12:55:23;;;;;;;;;;;;;;;10.49;34.34;98956.59;10287869;28;19921;-78
2022/03/08 13:00:29;;;;;;;;;;;;;;;10.89;30.81;98960.19;10312926;28;19943;-77
2022/03/08 13:05:31;;;;;;;;;;;;;;;12.10;30.77;98965.16;10191468;28;19949;-79
2022/03/08 13:10:33;;;;;;;;;;;;;;;11.36;28.37;98953.25;10263856;28;19931;-79
2022/03/08 13:15:33;;;;;;;;;;;;;;;11.60;28.12;98941.31;10184846;28;19983;-77
2022/03/08 13:20:40;;;;;;;;;;;;;;;12.17;27.33;98950.13;10193519;28;20413;-78
2022/03/08 13:25:42;;;;;;;;;;;;;;;13.16;28.37;98954.69;10251728;28;19936;-80
2022/03/08 13:30:50;;;;;;;;;;;;;;;12.04;27.53;98969.09;10207589;28;20289;-77
2022/03/08 13:35:54;;;;;;;;;;;;;;;13.15;25.87;98943.09;10275516;28;19929;-79
2022/03/08 13:41:00;;;;;;;;;;;;;;;13.44;26.97;98945.09;10204346;28;20356;-77
2022/03/08 13:46:01;;;;;;;;;;;;;;;12.77;26.60;98940.38;10250381;28;19982;-78
2022/03/08 13:51:07;;;;;;;;;;;;;;;12.69;26.61;98939.28;10195012;28;19935;-79
2022/03/08 13:56:08;;;;;;;;;;;;;;;11.86;26.45;98954.84;10188398;28;19934;-77
2022/03/08 14:01:09;;;;;;;;;;;;;;;10.44;28.70;98941.41;10268435;28;20308;-81
2022/03/08 14:06:15;;;;;;;;;;;;;;;10.19;30.91;98952.72;10264087;28;20339;-80
2022/03/08 14:11:18;;;;;;;;;;;;;;;10.58;29.99;98951.28;10203096;28;19950;-81
2022/03/08 14:16:21;;;;;;;;;;;;;;;9.47;32.63;98940.03;10249669;28;19933;-79
2022/03/08 14:21:23;;;;;;;;;;;;;;;9.92;31.53;98934.81;10273025;28;20380;-78
2022/03/08 14:26:23;;;;;;;;;;;;;;;9.51;30.69;98929.50;10257760;28;19940;-79
2022/03/08 14:31:34;;;;;;;;;;;;;;;8.53;33.13;98911.81;10189865;28;19946;-79
2022/03/08 14:36:36;;;;;;;;;;;;;;;8.77;34.08;98918.88;10198307;28;20421;-79
2022/03/08 14:41:38;;;;;;;;;;;;;;;8.15;34.48;98913.72;10170682;28;19953;-78
2022/03/08 14:46:38;;;;;;;;;;;;;;;8.14;33.34;98909.47;10273672;28;19927;-78
2022/03/08 14:51:39;;;;;;;;;;;;;;;8.22;34.76;98911.47;10290366;28;19945;-78
2022/03/08 14:56:40;;;;;;;;;;;;;;;8.24;33.64;98900.50;10257918;28;19927;-80
2022/03/08 15:01:41;;;;;;;;;;;;;;;7.98;35.00;98906.22;10187576;28;19973;-77
2022/03/08 15:06:43;;;;;;;;;;;;;;;7.77;35.67;98901.44;10185734;28;19927;-77
2022/03/08 15:11:44;;;;;;;;;;;;;;;7.95;34.78;98890.78;10185011;28;19938;-78
2022/03/08 15:16:45;;;;;;;;;;;;;;;7.61;36.51;98890.19;10162539;28;19927;-78
2022/03/08 15:21:47;;;;;;;;;;;;;;;7.53;36.01;98886.28;10266928;28;19946;-77
2022/03/08 15:26:49;;;;;;;;;;;;;;;7.47;39.00;98884.75;10258426;28;19925;-80
2022/03/08 15:31:49;;;;;;;;;;;;;;;7.37;36.49;98887.56;10205911;28;19923;-79
2022/03/08 15:36:50;;;;;;;;;;;;;;;7.19;34.70;98885.66;10191201;28;19942;-78
2022/03/08 15:41:51;;;;;;;;;;;;;;;7.18;37.26;98886.72;10268950;28;20422;-77
2022/03/08 15:46:54;;;;;;;;;;;;;;;7.21;36.31;98894.16;10209789;28;19929;-77
2022/03/08 15:51:54;;;;;;;;;;;;;;;7.07;35.18;98896.75;10228580;28;20002;-78
2022/03/08 15:56:58;;;;;;;;;;;;;;;7.08;34.93;98899.13;10231020;28;19927;-78
2022/03/08 16:01:58;;;;;;;;;;;;;;;6.87;34.47;98894.31;10214621;28;19923;-76
2022/03/08 16:07:00;;;;;;;;;;;;;;;6.68;35.95;98894.22;10336796;28;19925;-77
2022/03/08 16:12:01;;;;;;;;;;;;;;;6.64;37.15;98898.53;10258933;28;19996;-79
2022/03/08 16:17:03;;;;;;;;;;;;;;;6.74;35.72;98901.88;10217306;28;19923;-76
2022/03/08 16:22:04;;;;;;;;;;;;;;;6.59;35.52;98899.38;10201120;28;19955;-79
2022/03/08 16:27:06;;;;;;;;;;;;;;;6.47;36.29;98893.59;10256167;28;19927;-80
2022/03/08 16:32:08;;;;;;;;;;;;;;;6.34;36.92;98899.59;10255691;28;19923;-80
2022/03/08 16:37:09;;;;;;;;;;;;;;;6.23;37.20;98899.69;10263724;28;19926;-79
2022/03/08 16:42:14;;;;;;;;;;;;;;;5.98;37.39;98891.88;10265139;28;19923;-79
2022/03/08 16:47:18;;;;;;;;;;;;;;;5.92;37.94;98892.97;10255881;28;19938;-79
2022/03/08 16:52:21;;;;;;;;;;;;;;;5.70;38.40;98893.34;10190265;28;19947;-77
2022/03/08 16:57:22;;;;;;;;;;;;;;;5.56;38.08;98893.16;10187984;28;20472;-79
2022/03/08 17:02:22;;;;;;;;;;;;;;;5.38;38.63;98896.44;10243814;28;20016;-80
2022/03/08 17:07:22;;;;;;;;;;;;;;;5.15;39.03;98889.91;10208741;28;19950;-78
2022/03/08 17:12:25;;;;;;;;;;;;;;;4.99;39.04;98899.00;10275797;28;19931;-79
2022/03/08 17:17:25;;;;;;;;;;;;;;;4.82;39.50;98910.72;10263204;28;19928;-81
2022/03/08 17:22:28;;;;;;;;;;;;;;;4.69;40.73;98913.94;10333869;28;20022;-81
2022/03/08 17:27:29;;;;;;;;;;;;;;;4.46;41.84;98928.59;10197192;28;19958;-84
2022/03/08 17:32:30;;;;;;;;;;;;;;;4.17;42.39;98930.97;10270517;28;19927;-77
2022/03/08 17:37:30;;;;;;;;;;;;;;;3.89;43.52;98936.78;10265967;28;19927;-80
2022/03/08 17:42:33;;;;;;;;;;;;;;;3.66;44.86;98938.88;10181745;28;19931;-79
2022/03/08 17:47:35;;;;;;;;;;;;;;;3.39;47.00;98943.56;10191118;28;20589;-82
2022/03/08 17:52:35;;;;;;;;;;;;;;;3.09;52.34;98955.59;10243607;28;20019;-80
2022/03/08 17:57:40;;;;;;;;;;;;;;;2.82;51.57;98958.34;10239972;28;19944;-78
2022/03/08 18:02:41;;;;;;;;;;;;;;;2.76;48.49;98958.59;10257508;28;19935;-78
2022/03/08 18:07:41;;;;;;;;;;;;;;;2.79;48.54;98961.50;10274398;28;20034;-79
2022/03/08 18:12:41;;;;;;;;;;;;;;;2.69;48.48;98961.44;10207260;28;20077;-78
2022/03/08 18:17:42;;;;;;;;;;;;;;;2.53;49.82;98978.28;10271991;28;19931;-78
2022/03/08 18:22:44;;;;;;;;;;;;;;;2.30;54.28;98982.06;10260557;28;19926;-81
2022/03/08 18:27:45;;;;;;;;;;;;;;;2.20;53.12;98985.44;10214755;28;19932;-79
2022/03/08 18:32:45;;;;;;;;;;;;;;;2.15;52.30;98981.91;10354345;28;19933;-78
2022/03/08 18:37:45;;;;;;;;;;;;;;;2.08;55.47;98976.81;10270351;28;20057;-78
2022/03/08 18:42:46;;;;;;;;;;;;;;;1.85;58.41;98979.78;10200119;28;20004;-80
2022/03/08 18:47:49;;;;;;;;;;;;;;;1.64;66.94;98976.09;10332714;28;19927;-80
2022/03/08 18:52:50;;;;;;;;;;;;;;;1.52;65.45;98986.00;10278838;28;19938;-79
2022/03/08 18:57:51;;;;;;;;;;;;;;;1.42;64.51;98990.13;10359948;28;19909;-80
2022/03/08 19:02:52;;;;;;;;;;;;;;;1.40;63.83;98989.56;10319063;28;19928;-79
2022/03/08 19:07:54;;;;;;;;;;;;;;;1.31;65.16;98984.97;10278714;28;19934;-79
2022/03/08 19:12:55;;;;;;;;;;;;;;;1.22;69.21;98995.16;10229080;28;19938;-80
2022/03/08 19:17:55;;;;;;;;;;;;;;;1.15;67.68;98986.59;10370198;28;20023;-83
2022/03/08 19:22:56;;;;;;;;;;;;;;;1.00;73.63;98989.81;10312386;28;19957;-83
2022/03/08 19:27:56;;;;;;;;;;;;;;;0.82;72.52;98990.91;10229376;28;19986;-79
2022/03/08 19:32:56;;;;;;;;;;;;;;;0.75;76.46;98990.25;10217352;28;19919;-80
2022/03/08 19:37:57;;;;;;;;;;;;;;;0.69;74.88;98993.84;10270855;28;20424;-79
2022/03/08 19:42:58;;;;;;;;;;;;;;;0.62;76.63;98987.13;10269444;28;19981;-82
2022/03/08 19:47:58;;;;;;;;;;;;;;;0.54;82.43;99004.16;10197895;28;19962;-80
2022/03/08 19:52:59;;;;;;;;;;;;;;;0.51;81.33;99002.81;10287499;28;19910;-80
2022/03/08 19:58:00;;;;;;;;;;;;;;;0.30;85.41;99000.09;10208164;28;19923;-82
2022/03/08 20:03:02;;;;;;;;;;;;;;;-0.06;95.90;99017.91;10271960;28;20069;-83
2022/03/08 20:08:03;;;;;;;;;;;;;;;-0.20;90.17;99025.28;10215908;28;20624;-81
2022/03/08 20:13:04;;;;;;;;;;;;;;;-0.14;87.92;99029.63;10211649;28;19975;-78
2022/03/08 20:18:15;;;;;;;;;;;;;;;-0.21;90.89;99036.06;10316329;28;20660;-78
2022/03/08 20:23:16;;;;;;;;;;;;;;;-0.41;97.25;99036.47;10320283;28;19930;-80
2022/03/08 20:28:25;;;;;;;;;;;;;;;-0.65;100.00;99041.78;10312494;28;20014;-79
2022/03/08 20:33:27;;;;;;;;;;;;;;;-0.72;100.00;99050.84;10246409;28;19932;-80
2022/03/08 20:38:34;;;;;;;;;;;;;;;-0.84;100.00;99055.31;10320219;28;20473;-81
2022/03/08 20:43:35;;;;;;;;;;;;;;;-1.02;100.00;99056.22;10211549;28;19939;-82
2022/03/08 20:48:43;;;;;;;;;;;;;;;-1.09;100.00;99063.47;10285879;28;19992;-82
2022/03/08 20:53:45;;;;;;;;;;;;;;;-1.07;100.00;99058.75;10210610;28;19938;-79
2022/03/08 20:58:46;;;;;;;;;;;;;;;-1.19;100.00;99064.81;10284505;28;19941;-81
2022/03/08 21:03:46;;;;;;;;;;;;;;;-1.20;100.00;99062.38;10378992;28;19921;-82
2022/03/08 21:08:49;;;;;;;;;;;;;;;-1.37;100.00;99064.06;10273393;28;19931;-80
2022/03/08 21:13:49;;;;;;;;;;;;;;;-1.51;100.00;99058.22;10265053;28;19962;-78
2022/03/08 21:18:51;;;;;;;;;;;;;;;-1.63;100.00;99063.44;10215170;23;20406;-81
2022/03/08 21:23:54;;;;;;;;;;;;;;;-1.68;100.00;99044.09;10294318;28;20367;-81
2022/03/08 21:28:56;;;;;;;;;;;;;;;-1.73;100.00;99050.84;10316762;28;19921;-78
2022/03/08 21:34:00;;;;;;;;;;;;;;;-1.83;100.00;99047.94;10215667;28;19930;-79
2022/03/08 21:39:02;;;;;;;;;;;;;;;-1.88;100.00;99057.53;10305302;28;19925;-79
2022/03/08 21:44:03;;;;;;;;;;;;;;;-1.94;100.00;99069.72;10301691;28;19924;-80
2022/03/08 21:49:04;;;;;;;;;;;;;;;-1.60;100.00;99070.88;10302524;28;19994;-79
2022/03/08 21:54:05;;;;;;;;;;;;;;;-1.57;100.00;99061.75;10265861;28;20625;-79
2022/03/08 21:59:08;;;;;;;;;;;;;;;-1.68;100.00;99065.94;10211527;28;19934;-81
2022/03/08 22:04:10;;;;;;;;;;;;;;;-1.54;100.00;99064.75;10325217;28;19968;-80
2022/03/08 22:09:10;;;;;;;;;;;;;;;-1.49;100.00;99061.41;10284664;28;19997;-80
2022/03/08 22:19:58;;;;;;;;;;;;;;;-1.86;100.00;99066.78;10379776;28;19940;-80
2022/03/08 22:25:11;;;;;;;;;;;;;;;-2.13;100.00;99071.59;10358709;28;19921;-85
2022/03/08 22:30:20;;;;;;;;;;;;;;;-2.19;100.00;99087.47;10289490;28;19909;-79
2022/03/08 22:35:22;;;;;;;;;;;;;;;-1.93;100.00;99092.38;10597267;23;19926;-82
2022/03/08 22:40:24;;;;;;;;;;;;;;;-1.86;100.00;99094.94;10281531;28;20032;-79
2022/03/08 22:45:26;;;;;;;;;;;;;;;-2.04;100.00;99095.75;10238674;28;19930;-78
2022/03/08 22:55:48;;;;;;;;;;;;;;;-2.33;100.00;99106.00;10283096;28;19929;-80
2022/03/08 23:00:52;;;;;;;;;;;;;;;-2.35;100.00;99108.03;10331837;28;19923;-84
2022/03/08 23:05:56;;;;;;;;;;;;;;;-2.44;100.00;99105.91;10222165;28;19989;-82
2022/03/08 23:10:59;;;;;;;;;;;;;;;-2.51;100.00;99107.81;10283585;28;19923;-80
2022/03/08 23:16:00;;;;;;;;;;;;;;;-2.72;100.00;99109.81;10272833;28;19922;-79
2022/03/08 23:21:01;;;;;;;;;;;;;;;-2.74;100.00;99109.25;10247444;28;20016;-79
2022/03/08 23:26:06;;;;;;;;;;;;;;;-2.72;100.00;99109.03;10273146;28;19961;-76
2022/03/08 23:31:12;;;;;;;;;;;;;;;-2.78;100.00;99108.06;10275430;28;20135;-79
2022/03/08 23:36:20;;;;;;;;;;;;;;;-2.81;100.00;99107.69;10206702;28;19970;-77
2022/03/08 23:41:20;;;;;;;;;;;;;;;-2.82;100.00;99101.63;10276598;28;19934;-77
2022/03/08 23:46:21;;;;;;;;;;;;;;;-2.94;100.00;99093.63;10200900;28;19923;-78
2022/03/08 23:51:21;;;;;;;;;;;;;;;-3.01;100.00;99107.88;10258909;28;19923;-78
2022/03/08 23:56:21;;;;;;;;;;;;;;;-2.71;100.00;99106.19;10204551;28;19923;-78
